createdAt,value
2022-10-21T00:00:04.103Z,10.15
2022-10-21T00:01:08.348Z,10.15
2022-10-21T00:02:12.666Z,10.13
2022-10-21T00:03:16.911Z,10.11
2022-10-21T00:04:21.182Z,10.10
2022-10-21T00:05:25.436Z,10.08
2022-10-21T00:06:29.702Z,10.07
2022-10-21T00:07:33.967Z,10.07
2022-10-21T00:08:38.306Z,10.09
2022-10-21T00:09:42.498Z,10.10
2022-10-21T00:10:46.779Z,10.10
2022-10-21T00:11:50.945Z,10.08
2022-10-21T00:12:55.239Z,10.08
2022-10-21T00:13:59.502Z,10.07
2022-10-21T00:15:03.787Z,10.07
2022-10-21T00:16:08.002Z,10.06
2022-10-21T00:17:12.295Z,10.07
2022-10-21T00:18:16.575Z,10.08
2022-10-21T00:19:20.839Z,10.09
2022-10-21T00:20:25.091Z,10.10
2022-10-21T00:21:29.333Z,10.10
2022-10-21T00:22:33.497Z,10.11
2022-10-21T00:23:37.731Z,10.12
2022-10-21T00:24:42.060Z,10.13
2022-10-21T00:25:46.254Z,10.14
2022-10-21T00:26:50.387Z,10.15
2022-10-21T00:27:54.758Z,10.16
2022-10-21T00:28:58.938Z,10.17
2022-10-21T00:30:03.182Z,10.16
2022-10-21T00:31:07.522Z,10.16
2022-10-21T00:32:11.774Z,10.15
2022-10-21T00:33:16.060Z,10.16
2022-10-21T00:34:20.350Z,10.18
2022-10-21T00:35:24.625Z,10.19
2022-10-21T00:36:28.881Z,10.21
2022-10-21T00:37:33.144Z,10.22
2022-10-21T00:38:37.414Z,10.24
2022-10-21T00:39:41.640Z,10.25
2022-10-21T00:40:45.960Z,10.27
2022-10-21T00:41:50.213Z,10.28
2022-10-21T00:42:54.393Z,10.29
2022-10-21T00:43:58.751Z,10.30
2022-10-21T00:45:03.061Z,10.31
2022-10-21T00:46:07.298Z,10.32
2022-10-21T00:47:11.534Z,10.32
2022-10-21T00:48:15.823Z,10.32
2022-10-21T00:49:20.146Z,10.31
2022-10-21T00:50:24.350Z,10.30
2022-10-21T00:51:28.672Z,10.29
2022-10-21T00:52:32.931Z,10.29
2022-10-21T00:53:37.182Z,10.26
2022-10-21T00:54:41.461Z,10.24
2022-10-21T00:55:45.689Z,10.23
2022-10-21T00:56:53.010Z,10.22
2022-10-21T00:57:54.228Z,10.21
2022-10-21T00:58:58.493Z,10.19
2022-10-21T01:00:02.762Z,10.18
2022-10-21T01:01:07.300Z,10.18
2022-10-21T01:02:11.189Z,10.17
2022-10-21T01:03:15.524Z,10.18
2022-10-21T01:04:19.723Z,10.17
2022-10-21T01:05:23.866Z,10.17
2022-10-21T01:06:28.198Z,10.17
2022-10-21T01:07:35.289Z,10.16
2022-10-21T01:08:36.728Z,10.16
2022-10-21T01:09:41.000Z,10.15
2022-10-21T01:10:45.308Z,10.13
2022-10-21T01:11:49.573Z,10.12
2022-10-21T01:12:53.786Z,10.11
2022-10-21T01:13:58.092Z,10.11
2022-10-21T01:16:06.624Z,10.11
2022-10-21T01:17:20.563Z,10.12
2022-10-21T01:18:15.048Z,10.13
2022-10-21T01:19:19.301Z,10.13
2022-10-21T01:20:23.475Z,10.14
2022-10-21T01:21:27.795Z,10.13
2022-10-21T01:22:32.069Z,10.13
2022-10-21T01:23:36.342Z,10.13
2022-10-21T01:24:40.426Z,10.13
2022-10-21T01:25:44.725Z,10.12
2022-10-21T01:26:48.861Z,10.11
2022-10-21T01:27:53.215Z,10.11
2022-10-21T01:28:57.457Z,10.11
2022-10-21T01:30:01.724Z,10.11
2022-10-21T01:31:06.026Z,10.11
2022-10-21T01:32:10.299Z,10.11
2022-10-21T01:33:14.571Z,10.11
2022-10-21T01:34:18.791Z,10.11
2022-10-21T01:35:23.059Z,10.11
2022-10-21T01:36:27.324Z,10.11
2022-10-21T01:37:31.696Z,10.11
2022-10-21T01:38:35.812Z,10.10
2022-10-21T01:39:40.145Z,10.10
2022-10-21T01:40:44.388Z,10.08
2022-10-21T01:41:48.582Z,10.06
2022-10-21T01:42:52.872Z,10.04
2022-10-21T01:43:57.050Z,10.03
2022-10-21T01:45:01.307Z,10.02
2022-10-21T01:46:05.496Z,10.02
2022-10-21T01:47:09.802Z,10.02
2022-10-21T01:48:14.101Z,10.04
2022-10-21T01:49:18.403Z,10.05
2022-10-21T01:50:22.584Z,10.07
2022-10-21T01:51:26.922Z,10.06
2022-10-21T01:52:31.159Z,10.07
2022-10-21T01:53:35.449Z,10.07
2022-10-21T01:54:39.688Z,10.07
2022-10-21T01:55:43.962Z,10.07
2022-10-21T01:56:48.244Z,10.09
2022-10-21T01:57:52.433Z,10.10
2022-10-21T01:58:56.699Z,10.12
2022-10-21T02:00:00.950Z,10.12
2022-10-21T02:01:05.224Z,10.12
2022-10-21T02:02:09.471Z,10.13
2022-10-21T02:03:13.613Z,10.13
2022-10-21T02:04:17.918Z,10.13
2022-10-21T02:05:22.195Z,10.12
2022-10-21T02:06:26.322Z,10.11
2022-10-21T02:07:30.707Z,10.09
2022-10-21T02:08:34.947Z,10.07
2022-10-21T02:09:39.095Z,10.05
2022-10-21T02:10:43.414Z,10.04
2022-10-21T02:11:47.664Z,10.02
2022-10-21T02:12:51.870Z,10.00
2022-10-21T02:13:56.108Z,9.96
2022-10-21T02:15:00.337Z,9.93
2022-10-21T02:16:04.666Z,9.91
2022-10-21T02:17:08.903Z,9.88
2022-10-21T02:18:13.097Z,9.87
2022-10-21T02:19:17.485Z,9.85
2022-10-21T02:20:21.644Z,9.84
2022-10-21T02:21:25.956Z,9.83
2022-10-21T02:22:30.054Z,9.81
2022-10-21T02:23:34.408Z,9.80
2022-10-21T02:24:38.659Z,9.79
2022-10-21T02:25:42.902Z,9.80
2022-10-21T02:26:47.125Z,9.80
2022-10-21T02:27:51.432Z,9.78
2022-10-21T02:28:55.646Z,9.76
2022-10-21T02:29:59.972Z,9.74
2022-10-21T02:31:04.301Z,9.72
2022-10-21T02:32:08.463Z,9.70
2022-10-21T02:33:12.779Z,9.68
2022-10-21T02:34:16.992Z,9.66
2022-10-21T02:35:21.274Z,9.63
2022-10-21T02:36:25.551Z,9.62
2022-10-21T02:37:29.837Z,9.61
2022-10-21T02:38:33.937Z,9.62
2022-10-21T02:39:38.305Z,9.63
2022-10-21T02:40:42.537Z,9.62
2022-10-21T02:41:46.743Z,9.62
2022-10-21T02:42:51.059Z,9.63
2022-10-21T02:43:55.306Z,9.63
2022-10-21T02:44:59.509Z,9.63
2022-10-21T02:46:03.806Z,9.64
2022-10-21T02:47:08.113Z,9.64
2022-10-21T02:48:12.268Z,9.64
2022-10-21T02:49:16.511Z,9.64
2022-10-21T02:50:20.835Z,9.64
2022-10-21T02:51:25.119Z,9.65
2022-10-21T02:52:29.387Z,9.66
2022-10-21T02:53:33.569Z,9.66
2022-10-21T02:54:37.852Z,9.68
2022-10-21T02:55:42.093Z,9.69
2022-10-21T02:56:46.379Z,9.70
2022-10-21T02:57:50.559Z,9.70
2022-10-21T02:58:54.775Z,9.70
2022-10-21T02:59:58.979Z,9.70
2022-10-21T03:01:03.293Z,9.73
2022-10-21T03:02:10.515Z,9.75
2022-10-21T03:03:13.752Z,9.76
2022-10-21T03:04:18.053Z,9.76
2022-10-21T03:05:22.362Z,9.78
2022-10-21T03:06:26.617Z,9.79
2022-10-21T03:07:30.782Z,9.80
2022-10-21T03:08:35.246Z,9.79
2022-10-21T03:09:39.428Z,9.78
2022-10-21T03:10:43.632Z,9.77
2022-10-21T03:11:50.938Z,9.75
2022-10-21T03:12:54.280Z,9.76
2022-10-21T03:13:58.522Z,9.75
2022-10-21T03:15:02.705Z,9.74
2022-10-21T03:16:07.087Z,9.74
2022-10-21T03:17:11.321Z,9.75
2022-10-21T03:18:15.613Z,9.76
2022-10-21T03:19:19.786Z,9.76
2022-10-21T03:20:23.981Z,9.75
2022-10-21T03:21:28.286Z,9.74
2022-10-21T03:22:32.539Z,9.74
2022-10-21T03:23:36.829Z,9.76
2022-10-21T03:24:41.108Z,9.77
2022-10-21T03:25:45.432Z,9.79
2022-10-21T03:26:49.767Z,9.81
2022-10-21T03:27:54.022Z,9.82
2022-10-21T03:28:58.208Z,9.84
2022-10-21T03:30:02.431Z,9.85
2022-10-21T03:31:06.737Z,9.86
2022-10-21T03:32:10.966Z,9.86
2022-10-21T03:33:15.259Z,9.86
2022-10-21T03:34:19.518Z,9.87
2022-10-21T03:35:23.802Z,9.87
2022-10-21T03:36:28.102Z,9.89
2022-10-21T03:37:32.379Z,9.91
2022-10-21T03:38:36.699Z,9.92
2022-10-21T03:39:40.866Z,9.94
2022-10-21T03:40:45.218Z,9.97
2022-10-21T03:41:49.538Z,9.98
2022-10-21T03:42:53.878Z,10.00
2022-10-21T03:43:58.134Z,10.01
2022-10-21T03:45:02.512Z,10.04
2022-10-21T03:46:06.769Z,10.05
2022-10-21T03:47:11.056Z,10.07
2022-10-21T03:48:15.371Z,10.08
2022-10-21T03:49:21.271Z,10.09
2022-10-21T03:50:26.554Z,10.09
2022-10-21T03:51:28.188Z,10.09
2022-10-21T03:52:32.539Z,10.10
2022-10-21T03:53:43.297Z,10.11
2022-10-21T03:54:41.046Z,10.11
2022-10-21T03:55:45.343Z,10.09
2022-10-21T03:56:49.640Z,10.06
2022-10-21T03:57:54.020Z,10.02
2022-10-21T03:58:58.898Z,9.98
2022-10-21T04:00:02.590Z,9.94
2022-10-21T04:01:06.689Z,9.91
2022-10-21T04:02:11.076Z,9.88
2022-10-21T04:03:15.288Z,9.87
2022-10-21T04:04:19.556Z,9.87
2022-10-21T04:05:23.824Z,9.88
2022-10-21T04:06:28.095Z,9.89
2022-10-21T04:07:32.359Z,9.91
2022-10-21T04:08:36.734Z,9.93
2022-10-21T04:09:40.847Z,9.95
2022-10-21T04:10:45.283Z,9.98
2022-10-21T04:11:49.535Z,10.00
2022-10-21T04:12:53.929Z,10.01
2022-10-21T04:13:58.174Z,10.02
2022-10-21T04:15:02.480Z,10.02
2022-10-21T04:16:06.827Z,10.02
2022-10-21T04:17:11.058Z,10.02
2022-10-21T04:18:15.366Z,10.02
2022-10-21T04:19:19.751Z,10.02
2022-10-21T04:20:24.055Z,10.01
2022-10-21T04:21:28.298Z,10.00
2022-10-21T04:22:32.565Z,9.99
2022-10-21T04:23:36.848Z,9.99
2022-10-21T04:24:41.133Z,9.98
2022-10-21T04:25:45.548Z,9.98
2022-10-21T04:26:49.776Z,9.96
2022-10-21T04:27:54.126Z,9.94
2022-10-21T04:28:58.406Z,9.91
2022-10-21T04:30:02.670Z,9.89
2022-10-21T04:31:06.984Z,9.87
2022-10-21T04:32:11.382Z,9.87
2022-10-21T04:33:15.578Z,9.87
2022-10-21T04:34:19.860Z,9.87
2022-10-21T04:35:24.116Z,9.88
2022-10-21T04:36:28.397Z,9.89
2022-10-21T04:37:32.724Z,9.90
2022-10-21T04:38:37.104Z,9.91
2022-10-21T04:39:41.323Z,9.92
2022-10-21T04:40:45.461Z,9.92
2022-10-21T04:41:49.702Z,9.92
2022-10-21T04:42:54.025Z,9.91
2022-10-21T04:43:58.318Z,9.90
2022-10-21T04:45:02.418Z,9.90
2022-10-21T04:46:08.832Z,9.91
2022-10-21T04:47:11.093Z,9.90
2022-10-21T04:48:15.237Z,9.90
2022-10-21T04:49:19.577Z,9.89
2022-10-21T04:50:23.867Z,9.88
2022-10-21T04:51:28.141Z,9.88
2022-10-21T04:52:32.369Z,9.87
2022-10-21T04:53:36.544Z,9.87
2022-10-21T04:54:40.846Z,9.87
2022-10-21T04:55:45.108Z,9.87
2022-10-21T04:56:49.287Z,9.86
2022-10-21T04:57:53.488Z,9.87
2022-10-21T04:58:57.829Z,9.89
2022-10-21T05:00:02.112Z,9.90
2022-10-21T05:01:06.476Z,9.91
2022-10-21T05:02:10.693Z,9.91
2022-10-21T05:03:14.996Z,9.91
2022-10-21T05:04:19.105Z,9.91
2022-10-21T05:05:23.414Z,9.92
2022-10-21T05:06:27.797Z,9.93
2022-10-21T05:07:32.059Z,9.94
2022-10-21T05:08:36.521Z,9.96
2022-10-21T05:09:40.582Z,9.96
2022-10-21T05:10:44.994Z,9.96
2022-10-21T05:11:49.250Z,9.97
2022-10-21T05:12:53.543Z,9.96
2022-10-21T05:13:57.806Z,9.95
2022-10-21T05:15:02.129Z,9.96
2022-10-21T05:16:06.376Z,9.97
2022-10-21T05:17:10.667Z,9.96
2022-10-21T05:18:14.918Z,9.95
2022-10-21T05:19:19.072Z,9.94
2022-10-21T05:20:23.392Z,9.95
2022-10-21T05:21:27.789Z,9.96
2022-10-21T05:22:31.999Z,9.97
2022-10-21T05:23:36.268Z,9.98
2022-10-21T05:24:40.551Z,9.99
2022-10-21T05:25:44.843Z,10.00
2022-10-21T05:26:49.148Z,10.01
2022-10-21T05:27:53.544Z,10.02
2022-10-21T05:28:57.814Z,10.03
2022-10-21T05:30:02.104Z,10.03
2022-10-21T05:31:06.391Z,10.01
2022-10-21T05:32:10.564Z,9.97
2022-10-21T05:33:14.891Z,9.96
2022-10-21T05:34:19.159Z,9.92
2022-10-21T05:35:23.466Z,9.91
2022-10-21T05:36:27.707Z,9.89
2022-10-21T05:37:31.994Z,9.86
2022-10-21T05:38:36.160Z,9.84
2022-10-21T05:40:44.633Z,9.82
2022-10-21T05:41:49.049Z,9.83
2022-10-21T05:42:53.318Z,9.84
2022-10-21T05:43:57.481Z,9.86
2022-10-21T05:45:01.849Z,9.87
2022-10-21T05:46:06.110Z,9.88
2022-10-21T05:47:10.266Z,9.89
2022-10-21T05:48:17.885Z,9.88
2022-10-21T05:49:18.909Z,9.88
2022-10-21T05:50:23.247Z,9.87
2022-10-21T05:51:27.437Z,9.87
2022-10-21T05:52:31.774Z,9.85
2022-10-21T05:53:36.073Z,9.81
2022-10-21T05:54:40.341Z,9.79
2022-10-21T05:55:44.535Z,9.78
2022-10-21T05:56:48.867Z,9.78
2022-10-21T05:57:53.160Z,9.78
2022-10-21T05:58:57.415Z,9.78
2022-10-21T06:00:01.734Z,9.78
2022-10-21T06:01:06.084Z,9.78
2022-10-21T06:02:10.213Z,9.78
2022-10-21T06:03:14.662Z,9.79
2022-10-21T06:04:18.920Z,9.80
2022-10-21T06:05:23.182Z,9.81
2022-10-21T06:06:27.458Z,9.82
2022-10-21T06:07:31.776Z,9.83
2022-10-21T06:08:36.133Z,9.84
2022-10-21T06:09:40.397Z,9.84
2022-10-21T06:10:44.622Z,9.85
2022-10-21T06:11:48.889Z,9.84
2022-10-21T06:12:53.182Z,9.83
2022-10-21T06:13:57.475Z,9.82
2022-10-21T06:15:01.792Z,9.79
2022-10-21T06:17:10.333Z,9.78
2022-10-21T06:18:14.643Z,9.76
2022-10-21T06:19:18.805Z,9.75
2022-10-21T06:20:23.171Z,9.75
2022-10-21T06:21:27.531Z,9.75
2022-10-21T06:22:31.772Z,9.75
2022-10-21T06:23:36.137Z,9.75
2022-10-21T06:24:40.354Z,9.75
2022-10-21T06:25:44.656Z,9.75
2022-10-21T06:26:48.821Z,9.74
2022-10-21T06:27:53.155Z,9.73
2022-10-21T06:28:57.430Z,9.73
2022-10-21T06:30:01.587Z,9.71
2022-10-21T06:31:06.009Z,9.70
2022-10-21T06:32:10.235Z,9.69
2022-10-21T06:33:14.588Z,9.68
2022-10-21T06:34:18.924Z,9.67
2022-10-21T06:35:23.159Z,9.67
2022-10-21T06:36:27.405Z,9.66
2022-10-21T06:37:31.624Z,9.66
2022-10-21T06:38:36.017Z,9.67
2022-10-21T06:39:40.297Z,9.67
2022-10-21T06:40:44.468Z,9.66
2022-10-21T06:41:48.760Z,9.65
2022-10-21T06:42:52.999Z,9.64
2022-10-21T06:43:57.275Z,9.64
2022-10-21T06:45:01.582Z,9.63
2022-10-21T06:46:05.851Z,9.63
2022-10-21T06:47:10.117Z,9.62
2022-10-21T06:48:14.390Z,9.60
2022-10-21T06:49:18.574Z,9.59
2022-10-21T06:50:22.867Z,9.60
2022-10-21T06:51:27.137Z,9.61
2022-10-21T06:52:31.409Z,9.63
2022-10-21T06:53:38.972Z,9.65
2022-10-21T06:54:39.884Z,9.66
2022-10-21T06:55:44.242Z,9.68
2022-10-21T06:56:48.480Z,9.69
2022-10-21T06:57:52.798Z,9.69
2022-10-21T06:58:57.077Z,9.71
2022-10-21T07:00:01.385Z,9.72
2022-10-21T07:01:12.475Z,9.73
2022-10-21T07:02:09.977Z,9.73
2022-10-21T07:03:14.227Z,9.75
2022-10-21T07:04:18.477Z,9.77
2022-10-21T07:05:22.728Z,9.80
2022-10-21T07:06:27.115Z,9.82
2022-10-21T07:07:31.266Z,9.84
2022-10-21T07:08:46.687Z,9.86
2022-10-21T07:09:39.937Z,9.87
2022-10-21T07:10:44.140Z,9.90
2022-10-21T07:11:48.450Z,9.91
2022-10-21T07:12:52.716Z,9.93
2022-10-21T07:13:57.001Z,9.94
2022-10-21T07:15:01.290Z,9.94
2022-10-21T07:16:05.579Z,9.96
2022-10-21T07:17:09.875Z,9.98
2022-10-21T07:18:14.154Z,10.00
2022-10-21T07:19:18.431Z,10.03
2022-10-21T07:20:22.815Z,10.05
2022-10-21T07:21:27.076Z,10.07
2022-10-21T07:22:31.386Z,10.09
2022-10-21T07:23:35.764Z,10.10
2022-10-21T07:24:39.975Z,10.13
2022-10-21T07:25:44.367Z,10.16
2022-10-21T07:26:48.500Z,10.18
2022-10-21T07:27:52.792Z,10.20
2022-10-21T07:28:57.168Z,10.23
2022-10-21T07:30:01.535Z,10.26
2022-10-21T07:31:05.750Z,10.28
2022-10-21T07:32:10.147Z,10.31
2022-10-21T07:33:14.394Z,10.34
2022-10-21T07:34:18.679Z,10.37
2022-10-21T07:35:22.842Z,10.39
2022-10-21T07:36:27.272Z,10.42
2022-10-21T07:37:31.644Z,10.45
2022-10-21T07:38:35.882Z,10.47
2022-10-21T07:39:40.164Z,10.50
2022-10-21T07:40:44.460Z,10.53
2022-10-21T07:41:48.739Z,10.56
2022-10-21T07:42:52.901Z,10.58
2022-10-21T07:43:57.265Z,10.60
2022-10-21T07:45:01.548Z,10.62
2022-10-21T07:46:06.987Z,10.62
2022-10-21T07:47:09.944Z,10.63
2022-10-21T07:48:14.311Z,10.64
2022-10-21T07:49:18.477Z,10.66
2022-10-21T07:50:22.864Z,10.67
2022-10-21T07:51:28.685Z,10.68
2022-10-21T07:52:33.709Z,10.70
2022-10-21T07:53:35.645Z,10.72
2022-10-21T07:54:39.949Z,10.74
2022-10-21T07:55:44.264Z,10.77
2022-10-21T07:56:48.608Z,10.80
2022-10-21T07:57:52.814Z,10.82
2022-10-21T07:58:57.099Z,10.83
2022-10-21T08:00:01.302Z,10.85
2022-10-21T08:01:05.719Z,10.87
2022-10-21T08:02:09.842Z,10.89
2022-10-21T08:03:14.029Z,10.91
2022-10-21T08:04:18.369Z,10.93
2022-10-21T08:05:22.703Z,10.93
2022-10-21T08:06:27.021Z,10.93
2022-10-21T08:07:31.257Z,10.94
2022-10-21T08:08:35.501Z,10.96
2022-10-21T08:09:39.831Z,10.98
2022-10-21T08:10:44.218Z,10.98
2022-10-21T08:11:48.397Z,10.99
2022-10-21T08:12:52.759Z,11.00
2022-10-21T08:13:56.918Z,11.01
2022-10-21T08:15:01.241Z,11.02
2022-10-21T08:16:05.563Z,11.03
2022-10-21T08:17:09.811Z,11.05
2022-10-21T08:18:14.121Z,11.07
2022-10-21T08:19:18.400Z,11.09
2022-10-21T08:20:22.707Z,11.11
2022-10-21T08:21:27.047Z,11.13
2022-10-21T08:22:31.362Z,11.16
2022-10-21T08:23:35.773Z,11.19
2022-10-21T08:24:42.310Z,11.21
2022-10-21T08:25:44.241Z,11.24
2022-10-21T08:26:48.553Z,11.26
2022-10-21T08:27:52.867Z,11.27
2022-10-21T08:30:01.392Z,11.28
2022-10-21T08:31:05.652Z,11.29
2022-10-21T08:32:10.091Z,11.30
2022-10-21T08:33:14.209Z,11.32
2022-10-21T08:34:18.560Z,11.34
2022-10-21T08:35:22.883Z,11.34
2022-10-21T08:36:27.201Z,11.35
2022-10-21T08:37:31.455Z,11.37
2022-10-21T08:38:35.787Z,11.39
2022-10-21T08:39:40.163Z,11.41
2022-10-21T08:40:44.427Z,11.43
2022-10-21T08:41:48.726Z,11.45
2022-10-21T08:42:53.126Z,11.46
2022-10-21T08:43:57.357Z,11.48
2022-10-21T08:45:01.647Z,11.51
2022-10-21T08:46:05.930Z,11.52
2022-10-21T08:47:10.202Z,11.54
2022-10-21T08:48:14.627Z,11.56
2022-10-21T08:49:21.794Z,11.58
2022-10-21T08:50:23.215Z,11.61
2022-10-21T08:51:27.532Z,11.63
2022-10-21T08:52:31.823Z,11.65
2022-10-21T08:53:36.122Z,11.68
2022-10-21T08:54:40.401Z,11.71
2022-10-21T08:55:44.693Z,11.74
2022-10-21T08:56:49.008Z,11.76
2022-10-21T08:57:53.314Z,11.78
2022-10-21T08:58:57.633Z,11.81
2022-10-21T09:00:01.931Z,11.83
2022-10-21T09:01:06.211Z,11.85
2022-10-21T09:02:10.518Z,11.87
2022-10-21T09:03:14.904Z,11.89
2022-10-21T09:04:19.191Z,11.90
2022-10-21T09:06:28.502Z,11.90
2022-10-21T09:07:32.760Z,11.90
2022-10-21T09:08:37.105Z,11.92
2022-10-21T09:09:41.402Z,11.95
2022-10-21T09:10:45.666Z,11.98
2022-10-21T09:11:49.958Z,12.01
2022-10-21T09:12:54.257Z,12.03
2022-10-21T09:13:58.540Z,12.05
2022-10-21T09:15:04.186Z,12.07
2022-10-21T09:16:10.137Z,12.09
2022-10-21T09:17:13.459Z,12.12
2022-10-21T09:18:17.725Z,12.14
2022-10-21T09:19:25.105Z,12.17
2022-10-21T09:20:28.428Z,12.19
2022-10-21T09:21:32.645Z,12.21
2022-10-21T09:22:36.895Z,12.24
2022-10-21T09:23:41.189Z,12.26
2022-10-21T09:24:45.555Z,12.29
2022-10-21T09:25:49.841Z,12.32
2022-10-21T09:26:54.163Z,12.34
2022-10-21T09:27:58.967Z,12.36
2022-10-21T09:29:02.925Z,12.37
2022-10-21T09:30:07.240Z,12.38
2022-10-21T09:31:11.431Z,12.37
2022-10-21T09:32:15.849Z,12.37
2022-10-21T09:33:20.111Z,12.39
2022-10-21T09:34:24.400Z,12.41
2022-10-21T09:35:28.772Z,12.44
2022-10-21T09:36:32.982Z,12.46
2022-10-21T09:37:37.526Z,12.49
2022-10-21T09:38:41.509Z,12.52
2022-10-21T09:39:45.760Z,12.54
2022-10-21T09:40:53.012Z,12.56
2022-10-21T09:41:59.166Z,12.58
2022-10-21T09:43:00.728Z,12.61
2022-10-21T09:44:05.043Z,12.62
2022-10-21T09:45:09.330Z,12.63
2022-10-21T09:46:13.586Z,12.65
2022-10-21T09:47:17.933Z,12.66
2022-10-21T09:48:23.218Z,12.68
2022-10-21T09:50:01.745Z,12.69
2022-10-21T09:51:35.774Z,12.72
2022-10-21T09:52:40.326Z,12.73
2022-10-21T09:53:51.689Z,12.74
2022-10-21T09:54:48.805Z,12.75
2022-10-21T09:55:53.056Z,12.77
2022-10-21T09:56:57.290Z,12.79
2022-10-21T09:58:01.549Z,12.80
2022-10-21T09:59:07.552Z,12.82
2022-10-21T10:00:12.860Z,12.83
2022-10-21T10:01:14.431Z,12.85
2022-10-21T10:02:18.839Z,12.87
2022-10-21T10:03:22.832Z,12.89
2022-10-21T10:04:27.174Z,12.91
2022-10-21T10:05:31.559Z,12.94
2022-10-21T10:06:35.776Z,12.97
2022-10-21T10:07:40.139Z,13.00
2022-10-21T10:08:44.492Z,13.02
2022-10-21T10:09:48.694Z,13.05
2022-10-21T10:10:53.012Z,13.08
2022-10-21T10:11:57.366Z,13.11
2022-10-21T10:13:01.581Z,13.13
2022-10-21T10:14:05.959Z,13.15
2022-10-21T10:15:10.374Z,13.17
2022-10-21T10:16:14.649Z,13.19
2022-10-21T10:17:19.045Z,13.20
2022-10-21T10:18:23.448Z,13.20
2022-10-21T10:19:27.762Z,13.22
2022-10-21T10:20:32.834Z,13.23
2022-10-21T10:21:36.873Z,13.24
2022-10-21T10:22:41.734Z,13.26
2022-10-21T10:23:45.401Z,13.27
2022-10-21T10:24:49.872Z,13.28
2022-10-21T10:25:54.172Z,13.29
2022-10-21T10:26:58.479Z,13.30
2022-10-21T10:28:02.794Z,13.32
2022-10-21T10:29:07.153Z,13.33
2022-10-21T10:30:11.298Z,13.34
2022-10-21T10:31:15.682Z,13.36
2022-10-21T10:32:20.036Z,13.37
2022-10-21T10:33:24.373Z,13.38
2022-10-21T10:34:28.675Z,13.40
2022-10-21T10:35:33.020Z,13.42
2022-10-21T10:36:37.421Z,13.44
2022-10-21T10:38:46.012Z,13.49
2022-10-21T10:39:50.356Z,13.51
2022-10-21T10:40:56.434Z,13.53
2022-10-21T10:41:59.098Z,13.55
2022-10-21T10:43:03.304Z,13.57
2022-10-21T10:44:07.605Z,13.58
2022-10-21T10:45:11.866Z,13.59
2022-10-21T10:46:16.123Z,13.59
2022-10-21T10:47:20.323Z,13.60
2022-10-21T10:48:24.853Z,13.61
2022-10-21T10:49:29.050Z,13.61
2022-10-21T10:50:33.451Z,13.62
2022-10-21T10:51:37.549Z,13.63
2022-10-21T10:52:41.976Z,13.63
2022-10-21T10:53:46.386Z,13.64
2022-10-21T10:54:50.693Z,13.65
2022-10-21T10:55:55.169Z,13.66
2022-10-21T10:56:59.462Z,13.67
2022-10-21T10:58:12.521Z,13.68
2022-10-21T10:59:08.016Z,13.70
2022-10-21T11:00:12.471Z,13.72
2022-10-21T11:01:16.820Z,13.74
2022-10-21T11:02:21.075Z,13.77
2022-10-21T11:03:26.373Z,13.79
2022-10-21T11:04:29.784Z,13.82
2022-10-21T11:05:33.903Z,13.84
2022-10-21T11:06:38.315Z,13.86
2022-10-21T11:07:42.691Z,13.88
2022-10-21T11:08:47.055Z,13.89
2022-10-21T11:09:51.177Z,13.90
2022-10-21T11:10:55.448Z,13.90
2022-10-21T11:11:59.846Z,13.91
2022-10-21T11:13:04.052Z,13.91
2022-10-21T11:14:08.406Z,13.92
2022-10-21T11:15:15.834Z,13.92
2022-10-21T11:16:19.313Z,13.93
2022-10-21T11:17:23.589Z,13.94
2022-10-21T11:18:27.926Z,13.94
2022-10-21T11:19:32.258Z,13.95
2022-10-21T11:20:36.624Z,13.96
2022-10-21T11:21:40.926Z,13.96
2022-10-21T11:22:45.369Z,13.97
2022-10-21T11:23:49.689Z,13.97
2022-10-21T11:24:54.060Z,13.98
2022-10-21T11:25:58.316Z,13.99
2022-10-21T11:27:02.769Z,13.99
2022-10-21T11:28:07.020Z,14.00
2022-10-21T11:29:11.420Z,14.00
2022-10-21T11:30:15.589Z,14.02
2022-10-21T11:31:20.058Z,14.03
2022-10-21T11:32:24.477Z,14.05
2022-10-21T11:33:28.744Z,14.06
2022-10-21T11:34:32.874Z,14.07
2022-10-21T11:35:37.285Z,14.08
2022-10-21T11:36:41.615Z,14.09
2022-10-21T11:37:46.034Z,14.10
2022-10-21T11:38:51.155Z,14.11
2022-10-21T11:39:55.166Z,14.11
2022-10-21T11:40:59.487Z,14.12
2022-10-21T11:42:03.825Z,14.13
2022-10-21T11:43:08.357Z,14.13
2022-10-21T11:44:12.505Z,14.14
2022-10-21T11:45:16.725Z,14.15
2022-10-21T11:46:21.148Z,14.17
2022-10-21T11:47:25.449Z,14.19
2022-10-21T11:48:29.772Z,14.22
2022-10-21T11:49:37.055Z,14.24
2022-10-21T11:50:38.303Z,14.22
2022-10-21T11:51:42.687Z,14.25
2022-10-21T11:52:47.019Z,14.27
2022-10-21T11:53:51.456Z,14.30
2022-10-21T11:55:08.975Z,14.33
2022-10-21T11:56:00.132Z,14.35
2022-10-21T11:57:04.531Z,14.37
2022-10-21T11:58:08.800Z,14.38
2022-10-21T11:59:13.382Z,14.37
2022-10-21T12:00:17.518Z,14.34
2022-10-21T12:01:21.855Z,14.33
2022-10-21T12:02:26.280Z,14.31
2022-10-21T12:03:30.525Z,14.28
2022-10-21T12:04:34.876Z,14.27
2022-10-21T12:05:39.196Z,14.27
2022-10-21T12:06:43.514Z,14.24
2022-10-21T12:07:47.901Z,14.21
2022-10-21T12:08:52.205Z,14.20
2022-10-21T12:09:56.299Z,14.20
2022-10-21T12:11:00.716Z,14.19
2022-10-21T12:12:05.122Z,14.17
2022-10-21T12:13:09.420Z,14.17
2022-10-21T12:14:13.742Z,14.17
2022-10-21T12:15:18.197Z,14.17
2022-10-21T12:16:22.415Z,14.18
2022-10-21T12:17:26.769Z,14.18
2022-10-21T12:18:31.110Z,14.16
2022-10-21T12:19:35.506Z,14.15
2022-10-21T12:20:39.777Z,14.15
2022-10-21T12:21:44.116Z,14.15
2022-10-21T12:22:48.441Z,14.15
2022-10-21T12:23:52.640Z,14.15
2022-10-21T12:24:56.833Z,14.16
2022-10-21T12:26:01.256Z,14.16
2022-10-21T12:27:05.613Z,14.16
2022-10-21T12:28:10.040Z,14.16
2022-10-21T12:29:14.259Z,14.16
2022-10-21T12:30:22.141Z,14.15
2022-10-21T12:31:23.017Z,14.15
2022-10-21T12:32:27.235Z,14.15
2022-10-21T12:33:31.487Z,14.15
2022-10-21T12:34:35.771Z,14.16
2022-10-21T12:35:40.215Z,14.16
2022-10-21T12:36:44.518Z,14.15
2022-10-21T12:37:48.797Z,14.15
2022-10-21T12:38:53.216Z,14.15
2022-10-21T12:39:57.476Z,14.14
2022-10-21T12:41:01.690Z,14.13
2022-10-21T12:42:06.097Z,14.13
2022-10-21T12:43:10.383Z,14.13
2022-10-21T12:44:14.837Z,14.14
2022-10-21T12:45:19.137Z,14.15
2022-10-21T12:46:23.396Z,14.16
2022-10-21T12:47:27.655Z,14.16
2022-10-21T12:48:32.088Z,14.17
2022-10-21T12:49:36.348Z,14.18
2022-10-21T12:50:40.661Z,14.19
2022-10-21T12:51:45.025Z,14.20
2022-10-21T12:52:49.278Z,14.21
2022-10-21T12:53:53.589Z,14.22
2022-10-21T12:54:57.926Z,14.22
2022-10-21T12:56:02.179Z,14.22
2022-10-21T12:57:06.543Z,14.23
2022-10-21T12:58:10.899Z,14.24
2022-10-21T12:59:15.264Z,14.24
2022-10-21T13:00:19.667Z,14.25
2022-10-21T13:01:23.963Z,14.25
2022-10-21T13:02:28.154Z,14.26
2022-10-21T13:03:32.662Z,14.27
2022-10-21T13:04:36.912Z,14.28
2022-10-21T13:05:41.278Z,14.28
2022-10-21T13:06:45.459Z,14.28
2022-10-21T13:07:49.889Z,14.29
2022-10-21T13:08:54.381Z,14.28
2022-10-21T13:09:58.490Z,14.28
2022-10-21T13:11:02.982Z,14.28
2022-10-21T13:12:07.256Z,14.28
2022-10-21T13:13:11.607Z,14.28
2022-10-21T13:14:15.929Z,14.28
2022-10-21T13:15:20.239Z,14.28
2022-10-21T13:16:24.572Z,14.27
2022-10-21T13:17:28.914Z,14.27
2022-10-21T13:18:33.268Z,14.26
2022-10-21T13:19:37.712Z,14.25
2022-10-21T13:20:41.929Z,14.24
2022-10-21T13:21:46.191Z,14.23
2022-10-21T13:22:50.604Z,14.23
2022-10-21T13:23:54.966Z,14.23
2022-10-21T13:24:59.320Z,14.23
2022-10-21T13:26:03.681Z,14.24
2022-10-21T13:27:07.987Z,14.24
2022-10-21T13:28:12.368Z,14.24
2022-10-21T13:29:16.777Z,14.23
2022-10-21T13:30:21.120Z,14.23
2022-10-21T13:31:25.415Z,14.24
2022-10-21T13:32:29.627Z,14.24
2022-10-21T13:33:34.093Z,14.24
2022-10-21T13:34:42.223Z,14.23
2022-10-21T13:35:45.756Z,14.23
2022-10-21T13:36:49.189Z,14.23
2022-10-21T13:37:53.531Z,14.23
2022-10-21T13:38:57.821Z,14.24
2022-10-21T13:40:02.071Z,14.23
2022-10-21T13:41:06.518Z,14.23
2022-10-21T13:42:15.670Z,14.23
2022-10-21T13:43:15.186Z,14.25
2022-10-21T13:44:19.643Z,14.26
2022-10-21T13:45:23.932Z,14.27
2022-10-21T13:46:28.243Z,14.27
2022-10-21T13:47:32.656Z,14.27
2022-10-21T13:48:36.875Z,14.26
2022-10-21T13:49:41.222Z,14.27
2022-10-21T13:50:45.590Z,14.27
2022-10-21T13:51:49.957Z,14.28
2022-10-21T13:52:54.263Z,14.28
2022-10-21T13:53:58.512Z,14.28
2022-10-21T13:55:02.868Z,14.27
2022-10-21T13:56:07.203Z,14.27
2022-10-21T13:57:11.537Z,14.25
2022-10-21T13:58:15.773Z,14.24
2022-10-21T13:59:20.076Z,14.23
2022-10-21T14:00:24.348Z,14.23
2022-10-21T14:01:28.850Z,14.24
2022-10-21T14:02:33.198Z,14.25
2022-10-21T14:03:37.561Z,14.26